sensor_id;sensor_type;location;lat;lon;timestamp;P1;durP1;ratioP1;P2;durP2;ratioP2
51475;SDS011;37554;50.362;7.568;2023-07-22T00:01:09;2.28;;;2.00;;
51475;SDS011;37554;50.362;7.568;2023-07-22T00:03:35;3.13;;;2.20;;
51475;SDS011;37554;50.362;7.568;2023-07-22T00:06:04;2.15;;;1.83;;
51475;SDS011;37554;50.362;7.568;2023-07-22T00:08:31;2.95;;;1.83;;
51475;SDS011;37554;50.362;7.568;2023-07-22T00:10:57;1.83;;;1.73;;
51475;SDS011;37554;50.362;7.568;2023-07-22T00:13:23;2.25;;;1.83;;
51475;SDS011;37554;50.362;7.568;2023-07-22T00:15:51;2.35;;;1.75;;
51475;SDS011;37554;50.362;7.568;2023-07-22T00:18:20;2.08;;;1.95;;
51475;SDS011;37554;50.362;7.568;2023-07-22T00:20:46;2.08;;;1.88;;
51475;SDS011;37554;50.362;7.568;2023-07-22T00:23:12;2.75;;;1.85;;
51475;SDS011;37554;50.362;7.568;2023-07-22T00:25:40;3.05;;;1.90;;
51475;SDS011;37554;50.362;7.568;2023-07-22T00:28:06;1.77;;;1.67;;
51475;SDS011;37554;50.362;7.568;2023-07-22T00:30:31;2.03;;;1.70;;
51475;SDS011;37554;50.362;7.568;2023-07-22T00:32:57;2.78;;;1.98;;
51475;SDS011;37554;50.362;7.568;2023-07-22T00:35:23;2.72;;;1.88;;
51475;SDS011;37554;50.362;7.568;2023-07-22T00:37:48;2.38;;;1.73;;
51475;SDS011;37554;50.362;7.568;2023-07-22T00:40:14;2.75;;;2.00;;
51475;SDS011;37554;50.362;7.568;2023-07-22T00:42:40;4.63;;;1.88;;
51475;SDS011;37554;50.362;7.568;2023-07-22T00:45:07;2.72;;;1.60;;
51475;SDS011;37554;50.362;7.568;2023-07-22T00:47:33;2.35;;;1.90;;
51475;SDS011;37554;50.362;7.568;2023-07-22T00:49:59;2.47;;;2.00;;
51475;SDS011;37554;50.362;7.568;2023-07-22T00:52:27;1.92;;;1.67;;
51475;SDS011;37554;50.362;7.568;2023-07-22T00:54:53;1.98;;;1.77;;
51475;SDS011;37554;50.362;7.568;2023-07-22T00:57:19;2.22;;;1.80;;
51475;SDS011;37554;50.362;7.568;2023-07-22T00:59:45;2.85;;;1.80;;
51475;SDS011;37554;50.362;7.568;2023-07-22T01:02:11;2.05;;;1.73;;
51475;SDS011;37554;50.362;7.568;2023-07-22T01:04:37;2.58;;;2.13;;
51475;SDS011;37554;50.362;7.568;2023-07-22T01:07:03;3.35;;;1.85;;
51475;SDS011;37554;50.362;7.568;2023-07-22T01:09:44;3.25;;;1.70;;
51475;SDS011;37554;50.362;7.568;2023-07-22T01:12:10;2.42;;;1.92;;
51475;SDS011;37554;50.362;7.568;2023-07-22T01:14:37;2.00;;;1.80;;
51475;SDS011;37554;50.362;7.568;2023-07-22T01:17:07;1.90;;;1.80;;
51475;SDS011;37554;50.362;7.568;2023-07-22T01:19:34;4.28;;;1.88;;
51475;SDS011;37554;50.362;7.568;2023-07-22T01:22:01;2.15;;;1.70;;
51475;SDS011;37554;50.362;7.568;2023-07-22T01:24:32;2.00;;;1.80;;
51475;SDS011;37554;50.362;7.568;2023-07-22T01:26:58;3.72;;;1.58;;
51475;SDS011;37554;50.362;7.568;2023-07-22T01:29:24;2.13;;;1.90;;
51475;SDS011;37554;50.362;7.568;2023-07-22T01:31:51;2.28;;;1.92;;
51475;SDS011;37554;50.362;7.568;2023-07-22T01:34:18;3.05;;;2.45;;
51475;SDS011;37554;50.362;7.568;2023-07-22T01:36:45;2.20;;;2.00;;
51475;SDS011;37554;50.362;7.568;2023-07-22T01:39:12;3.58;;;2.17;;
51475;SDS011;37554;50.362;7.568;2023-07-22T01:41:38;3.50;;;2.25;;
51475;SDS011;37554;50.362;7.568;2023-07-22T01:44:04;2.05;;;1.92;;
51475;SDS011;37554;50.362;7.568;2023-07-22T01:46:29;3.15;;;2.20;;
51475;SDS011;37554;50.362;7.568;2023-07-22T01:48:55;3.03;;;2.00;;
51475;SDS011;37554;50.362;7.568;2023-07-22T01:51:21;2.47;;;1.75;;
51475;SDS011;37554;50.362;7.568;2023-07-22T01:53:47;3.38;;;2.17;;
51475;SDS011;37554;50.362;7.568;2023-07-22T01:56:13;2.05;;;1.95;;
51475;SDS011;37554;50.362;7.568;2023-07-22T01:58:38;2.55;;;2.17;;
51475;SDS011;37554;50.362;7.568;2023-07-22T02:01:04;2.20;;;2.00;;
51475;SDS011;37554;50.362;7.568;2023-07-22T02:03:29;2.00;;;1.90;;
51475;SDS011;37554;50.362;7.568;2023-07-22T02:06:03;1.90;;;1.80;;
51475;SDS011;37554;50.362;7.568;2023-07-22T02:08:29;1.90;;;1.80;;
51475;SDS011;37554;50.362;7.568;2023-07-22T02:10:55;2.35;;;2.03;;
51475;SDS011;37554;50.362;7.568;2023-07-22T02:13:25;2.08;;;1.90;;
51475;SDS011;37554;50.362;7.568;2023-07-22T02:15:51;2.30;;;1.95;;
51475;SDS011;37554;50.362;7.568;2023-07-22T02:18:16;1.98;;;1.67;;
51475;SDS011;37554;50.362;7.568;2023-07-22T02:20:42;2.10;;;1.95;;
51475;SDS011;37554;50.362;7.568;2023-07-22T02:23:08;4.07;;;2.00;;
51475;SDS011;37554;50.362;7.568;2023-07-22T02:25:34;1.92;;;1.83;;
51475;SDS011;37554;50.362;7.568;2023-07-22T02:28:01;2.80;;;2.10;;
51475;SDS011;37554;50.362;7.568;2023-07-22T02:30:26;3.22;;;2.17;;
51475;SDS011;37554;50.362;7.568;2023-07-22T02:32:52;1.98;;;1.88;;
51475;SDS011;37554;50.362;7.568;2023-07-22T02:35:17;2.63;;;2.03;;
51475;SDS011;37554;50.362;7.568;2023-07-22T02:37:43;2.20;;;2.00;;
51475;SDS011;37554;50.362;7.568;2023-07-22T02:40:09;4.60;;;2.20;;
51475;SDS011;37554;50.362;7.568;2023-07-22T02:42:38;2.35;;;2.15;;
51475;SDS011;37554;50.362;7.568;2023-07-22T02:45:07;2.33;;;1.83;;
51475;SDS011;37554;50.362;7.568;2023-07-22T02:47:33;2.25;;;2.05;;
51475;SDS011;37554;50.362;7.568;2023-07-22T02:49:59;2.08;;;1.88;;
51475;SDS011;37554;50.362;7.568;2023-07-22T02:52:25;2.58;;;2.15;;
51475;SDS011;37554;50.362;7.568;2023-07-22T02:55:04;2.10;;;1.90;;
51475;SDS011;37554;50.362;7.568;2023-07-22T02:57:32;2.03;;;1.88;;
51475;SDS011;37554;50.362;7.568;2023-07-22T02:59:58;3.05;;;1.90;;
51475;SDS011;37554;50.362;7.568;2023-07-22T03:02:24;2.30;;;1.83;;
51475;SDS011;37554;50.362;7.568;2023-07-22T03:04:49;1.60;;;1.50;;
51475;SDS011;37554;50.362;7.568;2023-07-22T03:07:15;2.10;;;1.90;;
51475;SDS011;37554;50.362;7.568;2023-07-22T03:09:40;2.17;;;1.98;;
51475;SDS011;37554;50.362;7.568;2023-07-22T03:12:06;3.20;;;2.13;;
51475;SDS011;37554;50.362;7.568;2023-07-22T03:14:32;2.17;;;1.98;;
51475;SDS011;37554;50.362;7.568;2023-07-22T03:17:01;2.28;;;2.03;;
51475;SDS011;37554;50.362;7.568;2023-07-22T03:19:28;2.55;;;2.05;;
51475;SDS011;37554;50.362;7.568;2023-07-22T03:21:54;3.28;;;2.10;;
51475;SDS011;37554;50.362;7.568;2023-07-22T03:24:20;2.65;;;1.80;;
51475;SDS011;37554;50.362;7.568;2023-07-22T03:26:46;2.53;;;1.83;;
51475;SDS011;37554;50.362;7.568;2023-07-22T03:29:11;2.72;;;2.05;;
51475;SDS011;37554;50.362;7.568;2023-07-22T03:31:37;2.17;;;1.90;;
51475;SDS011;37554;50.362;7.568;2023-07-22T03:34:04;2.28;;;2.08;;
51475;SDS011;37554;50.362;7.568;2023-07-22T03:36:29;2.05;;;1.85;;
51475;SDS011;37554;50.362;7.568;2023-07-22T03:38:58;1.70;;;1.60;;
51475;SDS011;37554;50.362;7.568;2023-07-22T03:41:24;2.22;;;2.03;;
51475;SDS011;37554;50.362;7.568;2023-07-22T03:43:50;2.10;;;1.85;;
51475;SDS011;37554;50.362;7.568;2023-07-22T03:46:16;2.63;;;1.75;;
51475;SDS011;37554;50.362;7.568;2023-07-22T03:48:41;2.22;;;1.90;;
51475;SDS011;37554;50.362;7.568;2023-07-22T03:51:07;3.70;;;2.30;;
51475;SDS011;37554;50.362;7.568;2023-07-22T03:53:32;2.10;;;1.90;;
51475;SDS011;37554;50.362;7.568;2023-07-22T03:55:58;2.75;;;1.80;;
51475;SDS011;37554;50.362;7.568;2023-07-22T03:58:24;2.13;;;1.92;;
51475;SDS011;37554;50.362;7.568;2023-07-22T04:00:49;3.47;;;2.30;;
51475;SDS011;37554;50.362;7.568;2023-07-22T04:03:15;2.28;;;2.03;;
51475;SDS011;37554;50.362;7.568;2023-07-22T04:05:41;2.78;;;2.10;;
51475;SDS011;37554;50.362;7.568;2023-07-22T04:08:06;2.40;;;2.20;;
51475;SDS011;37554;50.362;7.568;2023-07-22T04:10:32;2.30;;;2.10;;
51475;SDS011;37554;50.362;7.568;2023-07-22T04:12:57;3.22;;;1.67;;
51475;SDS011;37554;50.362;7.568;2023-07-22T04:15:23;3.65;;;2.00;;
51475;SDS011;37554;50.362;7.568;2023-07-22T04:17:48;2.47;;;1.88;;
51475;SDS011;37554;50.362;7.568;2023-07-22T04:20:14;2.20;;;1.90;;
51475;SDS011;37554;50.362;7.568;2023-07-22T04:22:40;2.95;;;1.92;;
51475;SDS011;37554;50.362;7.568;2023-07-22T04:25:06;3.20;;;1.90;;
51475;SDS011;37554;50.362;7.568;2023-07-22T04:27:32;2.40;;;1.80;;
51475;SDS011;37554;50.362;7.568;2023-07-22T04:29:58;1.85;;;1.75;;
51475;SDS011;37554;50.362;7.568;2023-07-22T04:32:23;3.17;;;2.03;;
51475;SDS011;37554;50.362;7.568;2023-07-22T04:34:49;2.70;;;2.20;;
51475;SDS011;37554;50.362;7.568;2023-07-22T04:37:15;3.15;;;2.45;;
51475;SDS011;37554;50.362;7.568;2023-07-22T04:39:41;2.42;;;2.22;;
51475;SDS011;37554;50.362;7.568;2023-07-22T04:42:07;2.53;;;2.33;;
51475;SDS011;37554;50.362;7.568;2023-07-22T04:44:33;2.40;;;2.20;;
51475;SDS011;37554;50.362;7.568;2023-07-22T04:46:59;2.13;;;2.03;;
51475;SDS011;37554;50.362;7.568;2023-07-22T04:49:25;2.40;;;2.20;;
51475;SDS011;37554;50.362;7.568;2023-07-22T04:51:50;3.00;;;2.70;;
51475;SDS011;37554;50.362;7.568;2023-07-22T04:54:16;3.75;;;2.38;;
51475;SDS011;37554;50.362;7.568;2023-07-22T04:56:43;2.55;;;2.35;;
51475;SDS011;37554;50.362;7.568;2023-07-22T04:59:08;4.38;;;2.38;;
51475;SDS011;37554;50.362;7.568;2023-07-22T05:01:34;2.72;;;2.53;;
51475;SDS011;37554;50.362;7.568;2023-07-22T05:04:00;2.65;;;2.15;;
51475;SDS011;37554;50.362;7.568;2023-07-22T05:06:28;2.38;;;2.22;;
51475;SDS011;37554;50.362;7.568;2023-07-22T05:08:53;2.90;;;2.38;;
51475;SDS011;37554;50.362;7.568;2023-07-22T05:11:19;2.50;;;2.30;;
51475;SDS011;37554;50.362;7.568;2023-07-22T05:13:45;3.65;;;2.40;;
51475;SDS011;37554;50.362;7.568;2023-07-22T05:16:10;2.50;;;2.30;;
51475;SDS011;37554;50.362;7.568;2023-07-22T05:18:36;2.40;;;2.20;;
51475;SDS011;37554;50.362;7.568;2023-07-22T05:21:03;2.47;;;2.28;;
51475;SDS011;37554;50.362;7.568;2023-07-22T05:23:28;2.90;;;2.60;;
51475;SDS011;37554;50.362;7.568;2023-07-22T05:25:54;2.97;;;2.45;;
51475;SDS011;37554;50.362;7.568;2023-07-22T05:28:20;2.30;;;2.17;;
51475;SDS011;37554;50.362;7.568;2023-07-22T05:30:45;2.65;;;2.38;;
51475;SDS011;37554;50.362;7.568;2023-07-22T05:33:11;2.75;;;2.45;;
51475;SDS011;37554;50.362;7.568;2023-07-22T05:35:36;3.05;;;2.13;;
51475;SDS011;37554;50.362;7.568;2023-07-22T05:38:02;2.85;;;2.60;;
51475;SDS011;37554;50.362;7.568;2023-07-22T05:40:29;3.17;;;2.22;;
51475;SDS011;37554;50.362;7.568;2023-07-22T05:42:55;2.45;;;2.08;;
51475;SDS011;37554;50.362;7.568;2023-07-22T05:45:21;2.17;;;1.98;;
51475;SDS011;37554;50.362;7.568;2023-07-22T05:47:46;3.55;;;2.10;;
51475;SDS011;37554;50.362;7.568;2023-07-22T05:50:12;2.42;;;2.22;;
51475;SDS011;37554;50.362;7.568;2023-07-22T05:52:38;3.35;;;2.05;;
51475;SDS011;37554;50.362;7.568;2023-07-22T05:55:03;2.00;;;1.90;;
51475;SDS011;37554;50.362;7.568;2023-07-22T05:57:30;2.65;;;2.17;;
51475;SDS011;37554;50.362;7.568;2023-07-22T05:59:55;2.17;;;2.03;;
51475;SDS011;37554;50.362;7.568;2023-07-22T06:02:21;2.40;;;2.20;;
51475;SDS011;37554;50.362;7.568;2023-07-22T06:04:47;3.33;;;2.45;;
51475;SDS011;37554;50.362;7.568;2023-07-22T06:07:13;2.35;;;2.15;;
51475;SDS011;37554;50.362;7.568;2023-07-22T06:09:38;2.72;;;2.10;;
51475;SDS011;37554;50.362;7.568;2023-07-22T06:12:04;3.90;;;2.33;;
51475;SDS011;37554;50.362;7.568;2023-07-22T06:14:30;3.55;;;2.20;;
51475;SDS011;37554;50.362;7.568;2023-07-22T06:16:55;2.58;;;2.38;;
51475;SDS011;37554;50.362;7.568;2023-07-22T06:19:21;2.58;;;2.13;;
51475;SDS011;37554;50.362;7.568;2023-07-22T06:21:48;2.35;;;2.15;;
51475;SDS011;37554;50.362;7.568;2023-07-22T06:24:14;2.05;;;1.88;;
51475;SDS011;37554;50.362;7.568;2023-07-22T06:26:40;2.67;;;2.17;;
51475;SDS011;37554;50.362;7.568;2023-07-22T06:29:05;2.42;;;2.22;;
51475;SDS011;37554;50.362;7.568;2023-07-22T06:31:31;2.63;;;2.22;;
51475;SDS011;37554;50.362;7.568;2023-07-22T06:33:57;2.75;;;2.20;;
51475;SDS011;37554;50.362;7.568;2023-07-22T06:36:26;2.88;;;2.15;;
51475;SDS011;37554;50.362;7.568;2023-07-22T06:38:52;2.80;;;2.10;;
51475;SDS011;37554;50.362;7.568;2023-07-22T06:41:17;2.10;;;1.95;;
51475;SDS011;37554;50.362;7.568;2023-07-22T06:43:44;2.60;;;2.40;;
51475;SDS011;37554;50.362;7.568;2023-07-22T06:46:10;1.98;;;1.88;;
51475;SDS011;37554;50.362;7.568;2023-07-22T06:48:35;2.72;;;2.20;;
51475;SDS011;37554;50.362;7.568;2023-07-22T06:51:01;2.47;;;2.00;;
51475;SDS011;37554;50.362;7.568;2023-07-22T06:53:26;2.35;;;2.15;;
51475;SDS011;37554;50.362;7.568;2023-07-22T06:55:52;4.13;;;2.20;;
51475;SDS011;37554;50.362;7.568;2023-07-22T06:58:21;2.40;;;2.13;;
51475;SDS011;37554;50.362;7.568;2023-07-22T07:00:53;2.28;;;1.95;;
51475;SDS011;37554;50.362;7.568;2023-07-22T07:03:20;2.95;;;2.30;;
51475;SDS011;37554;50.362;7.568;2023-07-22T07:05:51;2.42;;;2.13;;
51475;SDS011;37554;50.362;7.568;2023-07-22T07:08:20;2.53;;;1.88;;
51475;SDS011;37554;50.362;7.568;2023-07-22T07:10:46;5.03;;;2.10;;
51475;SDS011;37554;50.362;7.568;2023-07-22T07:13:12;1.80;;;1.70;;
51475;SDS011;37554;50.362;7.568;2023-07-22T07:15:37;2.28;;;1.90;;
51475;SDS011;37554;50.362;7.568;2023-07-22T07:18:03;3.70;;;2.50;;
51475;SDS011;37554;50.362;7.568;2023-07-22T07:20:29;3.45;;;2.90;;
51475;SDS011;37554;50.362;7.568;2023-07-22T07:22:54;2.88;;;2.67;;
51475;SDS011;37554;50.362;7.568;2023-07-22T07:25:20;3.30;;;3.00;;
51475;SDS011;37554;50.362;7.568;2023-07-22T07:27:46;3.50;;;3.20;;
51475;SDS011;37554;50.362;7.568;2023-07-22T07:30:12;3.03;;;2.83;;
51475;SDS011;37554;50.362;7.568;2023-07-22T07:32:38;3.95;;;2.80;;
51475;SDS011;37554;50.362;7.568;2023-07-22T07:35:05;4.72;;;3.00;;
51475;SDS011;37554;50.362;7.568;2023-07-22T07:37:31;3.05;;;2.85;;
51475;SDS011;37554;50.362;7.568;2023-07-22T07:40:00;3.05;;;2.85;;
51475;SDS011;37554;50.362;7.568;2023-07-22T07:42:26;3.22;;;2.92;;
51475;SDS011;37554;50.362;7.568;2023-07-22T07:44:52;4.03;;;2.95;;
51475;SDS011;37554;50.362;7.568;2023-07-22T07:47:18;3.67;;;3.35;;
51475;SDS011;37554;50.362;7.568;2023-07-22T07:49:44;3.08;;;2.65;;
51475;SDS011;37554;50.362;7.568;2023-07-22T07:52:10;2.80;;;2.60;;
51475;SDS011;37554;50.362;7.568;2023-07-22T07:54:36;3.42;;;2.85;;
51475;SDS011;37554;50.362;7.568;2023-07-22T07:57:02;5.72;;;2.85;;
51475;SDS011;37554;50.362;7.568;2023-07-22T07:59:31;6.30;;;2.70;;
51475;SDS011;37554;50.362;7.568;2023-07-22T08:01:57;3.03;;;2.72;;
51475;SDS011;37554;50.362;7.568;2023-07-22T08:04:23;2.60;;;2.22;;
51475;SDS011;37554;50.362;7.568;2023-07-22T08:06:51;2.60;;;2.40;;
51475;SDS011;37554;50.362;7.568;2023-07-22T08:09:17;4.95;;;2.80;;
51475;SDS011;37554;50.362;7.568;2023-07-22T08:11:46;4.95;;;2.88;;
51475;SDS011;37554;50.362;7.568;2023-07-22T08:14:12;3.30;;;3.08;;
51475;SDS011;37554;50.362;7.568;2023-07-22T08:16:39;4.43;;;2.42;;
51475;SDS011;37554;50.362;7.568;2023-07-22T08:19:04;3.28;;;2.97;;
51475;SDS011;37554;50.362;7.568;2023-07-22T08:21:30;5.18;;;2.78;;
51475;SDS011;37554;50.362;7.568;2023-07-22T08:23:59;3.15;;;2.40;;
51475;SDS011;37554;50.362;7.568;2023-07-22T08:26:24;3.33;;;2.90;;
51475;SDS011;37554;50.362;7.568;2023-07-22T08:28:50;2.53;;;2.33;;
51475;SDS011;37554;50.362;7.568;2023-07-22T08:31:16;3.88;;;3.13;;
51475;SDS011;37554;50.362;7.568;2023-07-22T08:33:41;3.28;;;2.72;;
51475;SDS011;37554;50.362;7.568;2023-07-22T08:36:07;4.45;;;2.75;;
51475;SDS011;37554;50.362;7.568;2023-07-22T08:38:33;3.10;;;2.78;;
51475;SDS011;37554;50.362;7.568;2023-07-22T08:40:59;3.40;;;2.42;;
51475;SDS011;37554;50.362;7.568;2023-07-22T08:43:25;4.65;;;2.72;;
51475;SDS011;37554;50.362;7.568;2023-07-22T08:45:52;7.30;;;2.50;;
51475;SDS011;37554;50.362;7.568;2023-07-22T08:48:19;2.92;;;2.70;;
51475;SDS011;37554;50.362;7.568;2023-07-22T08:53:32;4.22;;;2.72;;
51475;SDS011;37554;50.362;7.568;2023-07-22T08:56:00;6.13;;;3.50;;
51475;SDS011;37554;50.362;7.568;2023-07-22T08:58:26;4.57;;;2.75;;
51475;SDS011;37554;50.362;7.568;2023-07-22T09:00:53;2.88;;;2.63;;
51475;SDS011;37554;50.362;7.568;2023-07-22T09:03:20;3.53;;;2.80;;
51475;SDS011;37554;50.362;7.568;2023-07-22T09:05:45;5.13;;;2.28;;
51475;SDS011;37554;50.362;7.568;2023-07-22T09:08:12;2.40;;;2.20;;
51475;SDS011;37554;50.362;7.568;2023-07-22T09:10:38;2.28;;;2.08;;
51475;SDS011;37554;50.362;7.568;2023-07-22T09:13:05;2.60;;;2.40;;
51475;SDS011;37554;50.362;7.568;2023-07-22T09:15:32;2.28;;;2.08;;
51475;SDS011;37554;50.362;7.568;2023-07-22T09:18:01;3.28;;;2.25;;
51475;SDS011;37554;50.362;7.568;2023-07-22T09:20:28;2.55;;;2.35;;
51475;SDS011;37554;50.362;7.568;2023-07-22T09:22:54;3.30;;;2.60;;
51475;SDS011;37554;50.362;7.568;2023-07-22T09:25:21;3.50;;;2.15;;
51475;SDS011;37554;50.362;7.568;2023-07-22T09:27:52;4.43;;;2.35;;
51475;SDS011;37554;50.362;7.568;2023-07-22T09:30:26;5.00;;;2.83;;
51475;SDS011;37554;50.362;7.568;2023-07-22T09:32:53;1.90;;;1.80;;
51475;SDS011;37554;50.362;7.568;2023-07-22T09:35:20;2.97;;;2.42;;
51475;SDS011;37554;50.362;7.568;2023-07-22T09:37:47;3.05;;;2.10;;
51475;SDS011;37554;50.362;7.568;2023-07-22T09:40:13;2.60;;;2.10;;
51475;SDS011;37554;50.362;7.568;2023-07-22T09:42:45;2.60;;;2.20;;
51475;SDS011;37554;50.362;7.568;2023-07-22T09:45:31;2.55;;;2.30;;
51475;SDS011;37554;50.362;7.568;2023-07-22T09:47:58;5.45;;;2.90;;
51475;SDS011;37554;50.362;7.568;2023-07-22T09:50:24;2.65;;;2.45;;
51475;SDS011;37554;50.362;7.568;2023-07-22T09:52:55;3.20;;;2.90;;
51475;SDS011;37554;50.362;7.568;2023-07-22T09:55:24;3.17;;;2.77;;
51475;SDS011;37554;50.362;7.568;2023-07-22T09:57:52;4.82;;;3.88;;
51475;SDS011;37554;50.362;7.568;2023-07-22T10:00:19;4.53;;;3.80;;
51475;SDS011;37554;50.362;7.568;2023-07-22T10:02:46;4.97;;;2.85;;
51475;SDS011;37554;50.362;7.568;2023-07-22T10:05:15;3.22;;;2.92;;
51475;SDS011;37554;50.362;7.568;2023-07-22T10:07:43;3.15;;;2.85;;
51475;SDS011;37554;50.362;7.568;2023-07-22T10:10:11;2.78;;;2.40;;
51475;SDS011;37554;50.362;7.568;2023-07-22T10:12:41;4.57;;;2.45;;
51475;SDS011;37554;50.362;7.568;2023-07-22T10:15:08;3.28;;;2.72;;
51475;SDS011;37554;50.362;7.568;2023-07-22T10:17:39;2.80;;;2.60;;
51475;SDS011;37554;50.362;7.568;2023-07-22T10:20:09;2.47;;;2.28;;
51475;SDS011;37554;50.362;7.568;2023-07-22T10:22:40;3.58;;;2.28;;
51475;SDS011;37554;50.362;7.568;2023-07-22T10:25:11;2.53;;;2.30;;
51475;SDS011;37554;50.362;7.568;2023-07-22T10:27:38;3.22;;;2.65;;
51475;SDS011;37554;50.362;7.568;2023-07-22T10:30:06;3.28;;;2.78;;
51475;SDS011;37554;50.362;7.568;2023-07-22T10:32:33;5.03;;;3.20;;
51475;SDS011;37554;50.362;7.568;2023-07-22T10:35:10;3.05;;;2.75;;
51475;SDS011;37554;50.362;7.568;2023-07-22T10:37:38;2.85;;;2.53;;
51475;SDS011;37554;50.362;7.568;2023-07-22T10:40:16;2.40;;;2.20;;
51475;SDS011;37554;50.362;7.568;2023-07-22T10:43:01;3.13;;;2.35;;
51475;SDS011;37554;50.362;7.568;2023-07-22T10:48:14;2.88;;;2.65;;
51475;SDS011;37554;50.362;7.568;2023-07-22T10:50:44;4.75;;;2.25;;
51475;SDS011;37554;50.362;7.568;2023-07-22T10:53:21;5.55;;;2.38;;
51475;SDS011;37554;50.362;7.568;2023-07-22T11:09:54;4.20;;;3.28;;
51475;SDS011;37554;50.362;7.568;2023-07-22T11:16:57;3.35;;;3.05;;
51475;SDS011;37554;50.362;7.568;2023-07-22T11:19:23;4.55;;;2.90;;
51475;SDS011;37554;50.362;7.568;2023-07-22T11:21:50;3.20;;;2.47;;
51475;SDS011;37554;50.362;7.568;2023-07-22T11:24:17;2.83;;;2.45;;
51475;SDS011;37554;50.362;7.568;2023-07-22T11:26:45;3.88;;;2.67;;
51475;SDS011;37554;50.362;7.568;2023-07-22T11:29:12;4.55;;;4.13;;
51475;SDS011;37554;50.362;7.568;2023-07-22T11:31:39;4.40;;;3.28;;
51475;SDS011;37554;50.362;7.568;2023-07-22T11:34:14;4.38;;;3.97;;
51475;SDS011;37554;50.362;7.568;2023-07-22T11:36:41;4.35;;;3.03;;
51475;SDS011;37554;50.362;7.568;2023-07-22T11:39:08;3.90;;;3.15;;
51475;SDS011;37554;50.362;7.568;2023-07-22T11:41:35;4.55;;;3.13;;
51475;SDS011;37554;50.362;7.568;2023-07-22T11:44:02;4.15;;;3.75;;
51475;SDS011;37554;50.362;7.568;2023-07-22T11:46:34;4.28;;;2.92;;
51475;SDS011;37554;50.362;7.568;2023-07-22T11:49:01;3.60;;;3.30;;
51475;SDS011;37554;50.362;7.568;2023-07-22T11:51:28;2.65;;;2.45;;
51475;SDS011;37554;50.362;7.568;2023-07-22T11:53:54;3.53;;;3.20;;
51475;SDS011;37554;50.362;7.568;2023-07-22T11:56:21;4.85;;;2.80;;
51475;SDS011;37554;50.362;7.568;2023-07-22T11:58:53;3.65;;;2.42;;
51475;SDS011;37554;50.362;7.568;2023-07-22T12:01:20;3.17;;;2.53;;
51475;SDS011;37554;50.362;7.568;2023-07-22T12:03:47;2.80;;;2.40;;
51475;SDS011;37554;50.362;7.568;2023-07-22T12:06:13;2.33;;;2.10;;
51475;SDS011;37554;50.362;7.568;2023-07-22T12:08:43;2.42;;;2.22;;
51475;SDS011;37554;50.362;7.568;2023-07-22T12:11:20;2.53;;;2.25;;
51475;SDS011;37554;50.362;7.568;2023-07-22T12:13:54;3.90;;;2.35;;
51475;SDS011;37554;50.362;7.568;2023-07-22T12:18:59;2.78;;;2.58;;
51475;SDS011;37554;50.362;7.568;2023-07-22T12:21:27;4.75;;;3.30;;
51475;SDS011;37554;50.362;7.568;2023-07-22T12:23:52;2.72;;;2.53;;
51475;SDS011;37554;50.362;7.568;2023-07-22T12:26:19;2.50;;;2.30;;
51475;SDS011;37554;50.362;7.568;2023-07-22T12:28:45;2.72;;;2.53;;
51475;SDS011;37554;50.362;7.568;2023-07-22T12:31:10;4.15;;;2.17;;
51475;SDS011;37554;50.362;7.568;2023-07-22T12:33:36;3.83;;;2.58;;
51475;SDS011;37554;50.362;7.568;2023-07-22T12:36:02;2.80;;;2.50;;
51475;SDS011;37554;50.362;7.568;2023-07-22T12:38:27;4.63;;;3.17;;
51475;SDS011;37554;50.362;7.568;2023-07-22T12:40:53;3.97;;;2.70;;
51475;SDS011;37554;50.362;7.568;2023-07-22T12:43:19;4.22;;;2.67;;
51475;SDS011;37554;50.362;7.568;2023-07-22T12:45:44;3.13;;;2.70;;
51475;SDS011;37554;50.362;7.568;2023-07-22T12:48:10;5.97;;;3.38;;
51475;SDS011;37554;50.362;7.568;2023-07-22T12:50:36;3.28;;;2.97;;
51475;SDS011;37554;50.362;7.568;2023-07-22T12:53:02;4.90;;;3.60;;
51475;SDS011;37554;50.362;7.568;2023-07-22T12:55:28;6.28;;;3.33;;
51475;SDS011;37554;50.362;7.568;2023-07-22T12:57:54;4.20;;;3.15;;
51475;SDS011;37554;50.362;7.568;2023-07-22T13:00:19;6.82;;;3.10;;
51475;SDS011;37554;50.362;7.568;2023-07-22T13:02:46;3.03;;;2.72;;
51475;SDS011;37554;50.362;7.568;2023-07-22T13:05:12;3.42;;;2.25;;
51475;SDS011;37554;50.362;7.568;2023-07-22T13:07:38;4.90;;;2.55;;
51475;SDS011;37554;50.362;7.568;2023-07-22T13:10:04;4.15;;;2.20;;
51475;SDS011;37554;50.362;7.568;2023-07-22T13:12:33;2.55;;;2.35;;
51475;SDS011;37554;50.362;7.568;2023-07-22T13:14:59;2.55;;;2.35;;
51475;SDS011;37554;50.362;7.568;2023-07-22T13:17:25;2.60;;;2.40;;
51475;SDS011;37554;50.362;7.568;2023-07-22T13:19:50;2.60;;;2.40;;
51475;SDS011;37554;50.362;7.568;2023-07-22T13:22:16;4.68;;;2.40;;
51475;SDS011;37554;50.362;7.568;2023-07-22T13:24:41;4.00;;;2.30;;
51475;SDS011;37554;50.362;7.568;2023-07-22T13:27:07;2.63;;;2.42;;
51475;SDS011;37554;50.362;7.568;2023-07-22T13:29:33;4.28;;;2.40;;
51475;SDS011;37554;50.362;7.568;2023-07-22T13:31:58;4.03;;;2.53;;
51475;SDS011;37554;50.362;7.568;2023-07-22T13:34:24;3.28;;;2.60;;
51475;SDS011;37554;50.362;7.568;2023-07-22T13:36:50;3.55;;;2.13;;
51475;SDS011;37554;50.362;7.568;2023-07-22T13:39:16;4.15;;;2.47;;
51475;SDS011;37554;50.362;7.568;2023-07-22T13:41:42;2.72;;;2.22;;
51475;SDS011;37554;50.362;7.568;2023-07-22T13:44:07;3.35;;;2.20;;
51475;SDS011;37554;50.362;7.568;2023-07-22T13:46:33;2.83;;;2.22;;
51475;SDS011;37554;50.362;7.568;2023-07-22T13:48:59;2.92;;;2.35;;
51475;SDS011;37554;50.362;7.568;2023-07-22T13:51:24;2.78;;;2.42;;
51475;SDS011;37554;50.362;7.568;2023-07-22T13:53:51;3.92;;;2.25;;
51475;SDS011;37554;50.362;7.568;2023-07-22T13:56:20;3.10;;;2.40;;
51475;SDS011;37554;50.362;7.568;2023-07-22T13:58:45;2.97;;;2.70;;
51475;SDS011;37554;50.362;7.568;2023-07-22T14:01:12;2.28;;;2.08;;
51475;SDS011;37554;50.362;7.568;2023-07-22T14:03:38;3.65;;;2.50;;
51475;SDS011;37554;50.362;7.568;2023-07-22T14:06:04;3.03;;;2.70;;
51475;SDS011;37554;50.362;7.568;2023-07-22T14:08:29;3.72;;;2.35;;
51475;SDS011;37554;50.362;7.568;2023-07-22T14:10:55;2.92;;;2.20;;
51475;SDS011;37554;50.362;7.568;2023-07-22T14:13:21;2.63;;;2.42;;
51475;SDS011;37554;50.362;7.568;2023-07-22T14:15:46;3.85;;;2.50;;
51475;SDS011;37554;50.362;7.568;2023-07-22T14:18:12;2.78;;;2.50;;
51475;SDS011;37554;50.362;7.568;2023-07-22T14:20:42;5.10;;;2.80;;
51475;SDS011;37554;50.362;7.568;2023-07-22T14:23:08;2.80;;;2.55;;
51475;SDS011;37554;50.362;7.568;2023-07-22T14:25:33;3.10;;;2.80;;
51475;SDS011;37554;50.362;7.568;2023-07-22T14:27:59;4.18;;;2.55;;
51475;SDS011;37554;50.362;7.568;2023-07-22T14:30:25;4.03;;;2.55;;
51475;SDS011;37554;50.362;7.568;2023-07-22T14:32:51;8.93;;;3.13;;
51475;SDS011;37554;50.362;7.568;2023-07-22T14:35:16;2.38;;;2.17;;
51475;SDS011;37554;50.362;7.568;2023-07-22T14:37:42;3.15;;;2.33;;
51475;SDS011;37554;50.362;7.568;2023-07-22T14:40:08;3.63;;;2.75;;
51475;SDS011;37554;50.362;7.568;2023-07-22T14:42:34;4.57;;;2.60;;
51475;SDS011;37554;50.362;7.568;2023-07-22T14:45:00;4.28;;;2.65;;
51475;SDS011;37554;50.362;7.568;2023-07-22T14:47:25;4.15;;;2.53;;
51475;SDS011;37554;50.362;7.568;2023-07-22T14:49:51;4.53;;;2.67;;
51475;SDS011;37554;50.362;7.568;2023-07-22T14:52:17;3.80;;;2.53;;
51475;SDS011;37554;50.362;7.568;2023-07-22T14:54:43;2.50;;;2.30;;
51475;SDS011;37554;50.362;7.568;2023-07-22T14:57:08;2.63;;;2.40;;
51475;SDS011;37554;50.362;7.568;2023-07-22T14:59:34;5.22;;;2.92;;
51475;SDS011;37554;50.362;7.568;2023-07-22T15:02:00;2.88;;;2.63;;
51475;SDS011;37554;50.362;7.568;2023-07-22T15:04:25;2.72;;;2.53;;
51475;SDS011;37554;50.362;7.568;2023-07-22T15:06:51;2.95;;;2.70;;
51475;SDS011;37554;50.362;7.568;2023-07-22T15:09:17;3.13;;;2.80;;
51475;SDS011;37554;50.362;7.568;2023-07-22T15:11:43;2.60;;;2.40;;